Terminal Aerodrome Forecast
Issued by NWS Green Bay, WI

Home | Current Version | Previous Version | Graphics & Text | Print | Product List | Glossary On
Versions: 1 2 3 4 5 6 7 8 9 10 11 12 13 14 15 16 17 18 19 20 21 22 23 24
000
FTUS43 KGRB 160525
TAFGRB
TAF
KGRB 160525Z 1606/1706 06003KT P6SM BKN250
     FM161400 07008KT P6SM SCT120 BKN250
     FM170200 08007KT P6SM SCT035 OVC060 PROB30 1703/1706 -SHRA
      BKN035=

USA.gov is the U.S. government's official web portal to all federal, state and local government web resources and services.